createdAt,value
2023-02-24T00:01:25.137Z,52.30
2023-02-24T00:03:59.937Z,53.80
2023-02-24T00:06:36.282Z,48.30
2023-02-24T00:09:10.137Z,46.40
2023-02-24T00:11:46.355Z,47.30
2023-02-24T00:14:19.661Z,48.90
2023-02-24T00:16:53.190Z,54.60
2023-02-24T00:19:29.253Z,46.20
2023-02-24T00:22:02.558Z,56.30
2023-02-24T00:24:35.942Z,47.80
2023-02-24T00:27:12.011Z,52.80
2023-02-24T00:29:48.403Z,46.10
2023-02-24T00:32:20.839Z,50.00
2023-02-24T00:34:53.431Z,49.40
2023-02-24T00:37:25.735Z,47.10
2023-02-24T00:39:59.171Z,46.70
2023-02-24T00:42:31.983Z,45.50
2023-02-24T00:45:10.460Z,46.00
2023-02-24T00:50:15.448Z,46.20
2023-02-24T00:52:49.284Z,47.90
2023-02-24T00:55:23.582Z,52.80
2023-02-24T00:57:56.387Z,73.20
2023-02-24T01:00:29.911Z,56.50
2023-02-24T01:03:02.348Z,58.70
2023-02-24T01:05:39.073Z,50.50
2023-02-24T01:08:11.580Z,62.80
2023-02-24T01:11:03.960Z,64.60
2023-02-24T01:13:36.343Z,49.70
2023-02-24T01:16:09.468Z,57.00
2023-02-24T01:18:41.861Z,59.60
2023-02-24T01:21:14.865Z,51.70
2023-02-24T01:23:50.605Z,59.60
2023-02-24T01:26:24.215Z,48.30
2023-02-24T01:28:56.834Z,53.10
2023-02-24T01:31:29.452Z,43.80
2023-02-24T01:34:06.063Z,50.90
2023-02-24T01:36:39.550Z,47.70
2023-02-24T01:39:12.574Z,52.60
2023-02-24T01:41:47.409Z,50.00
2023-02-24T01:44:54.257Z,51.30
2023-02-24T01:47:31.319Z,51.40
2023-02-24T01:50:06.814Z,48.30
2023-02-24T01:52:40.145Z,44.20
2023-02-24T01:55:20.367Z,45.80
2023-02-24T01:57:55.388Z,46.50
2023-02-24T02:00:38.231Z,48.00
2023-02-24T02:03:20.902Z,46.60
2023-02-24T02:05:54.201Z,52.70
2023-02-24T02:08:27.204Z,48.70
2023-02-24T02:11:04.360Z,50.30
2023-02-24T02:13:41.310Z,46.10
2023-02-24T02:16:36.231Z,52.90
2023-02-24T02:19:33.122Z,47.00
2023-02-24T02:22:19.268Z,45.60
2023-02-24T02:24:58.516Z,57.50
2023-02-24T02:28:02.960Z,48.40
2023-02-24T02:31:04.122Z,49.30
2023-02-24T02:34:08.106Z,45.60
2023-02-24T02:36:50.515Z,56.50
2023-02-24T02:39:29.180Z,47.60
2023-02-24T02:42:14.508Z,49.20
2023-02-24T02:44:56.170Z,51.00
2023-02-24T02:47:35.035Z,50.80
2023-02-24T02:50:18.473Z,57.20
2023-02-24T02:52:56.882Z,51.90
2023-02-24T02:58:09.765Z,57.80
2023-02-24T03:00:50.304Z,50.60
2023-02-24T03:03:22.927Z,54.30
2023-02-24T03:05:58.298Z,51.50
2023-02-24T03:08:37.332Z,51.50
2023-02-24T03:11:14.158Z,53.90
2023-02-24T03:13:51.036Z,53.70
2023-02-24T03:16:26.658Z,61.30
2023-02-24T03:19:06.236Z,56.60
2023-02-24T03:21:42.244Z,62.40
2023-02-24T03:24:15.997Z,64.50
2023-02-24T03:26:52.571Z,54.60
2023-02-24T03:29:36.578Z,66.10
2023-02-24T03:32:15.709Z,64.60
2023-02-24T03:34:56.875Z,58.00
2023-02-24T03:37:30.418Z,61.40
2023-02-24T03:40:11.976Z,55.20
2023-02-24T03:42:48.437Z,58.70
2023-02-24T03:45:23.340Z,53.80
2023-02-24T03:47:56.501Z,60.40
2023-02-24T03:50:32.017Z,64.70
2023-02-24T03:53:22.483Z,62.50
2023-02-24T03:56:04.852Z,57.60
2023-02-24T03:59:00.155Z,61.90
2023-02-24T04:01:43.302Z,66.90
2023-02-24T04:04:27.602Z,66.10
2023-02-24T04:07:14.119Z,71.60
2023-02-24T04:09:57.991Z,64.90
2023-02-24T04:12:36.931Z,59.60
2023-02-24T04:15:17.293Z,69.70
2023-02-24T04:17:53.737Z,65.20
2023-02-24T04:20:32.150Z,68.60
2023-02-24T04:23:10.192Z,74.30
2023-02-24T04:25:45.084Z,68.80
2023-02-24T04:28:19.090Z,66.60
2023-02-24T04:30:55.535Z,61.70
2023-02-24T04:33:28.528Z,72.50
2023-02-24T04:36:02.988Z,67.50
2023-02-24T04:38:36.306Z,68.90
2023-02-24T04:41:08.743Z,63.10
2023-02-24T04:43:41.088Z,67.10
2023-02-24T04:46:13.593Z,63.80
2023-02-24T04:48:46.652Z,70.00
2023-02-24T04:51:21.291Z,70.70
2023-02-24T04:53:55.654Z,68.70
2023-02-24T04:56:29.098Z,67.40
2023-02-24T04:59:02.785Z,73.30
2023-02-24T05:01:35.013Z,72.90
2023-02-24T05:04:08.595Z,66.20
2023-02-24T05:06:44.193Z,62.90
2023-02-24T05:09:18.779Z,74.20
2023-02-24T05:11:53.324Z,72.60
2023-02-24T05:14:26.019Z,73.40
2023-02-24T05:17:01.725Z,74.10
2023-02-24T05:19:52.150Z,75.70
2023-02-24T05:22:24.489Z,81.60
2023-02-24T05:24:57.708Z,71.70
2023-02-24T05:27:29.877Z,72.50
2023-02-24T05:30:02.635Z,64.50
2023-02-24T05:32:35.381Z,75.40
2023-02-24T05:35:08.864Z,73.60
2023-02-24T05:37:43.277Z,69.70
2023-02-24T05:40:16.072Z,74.60
2023-02-24T05:42:48.117Z,76.80
2023-02-24T05:45:20.351Z,65.80
2023-02-24T05:47:55.229Z,74.70
2023-02-24T05:50:27.442Z,72.00
2023-02-24T05:52:59.795Z,68.70
2023-02-24T05:55:33.019Z,62.40
2023-02-24T05:58:07.414Z,64.10
2023-02-24T06:00:41.192Z,58.70
2023-02-24T06:03:17.672Z,60.30
2023-02-24T06:05:59.349Z,62.60
2023-02-24T06:08:42.171Z,65.00
2023-02-24T06:11:15.933Z,63.90
2023-02-24T06:13:48.946Z,65.70
2023-02-24T06:16:21.755Z,69.00
2023-02-24T06:18:54.124Z,63.70
2023-02-24T06:21:29.439Z,64.00
2023-02-24T06:24:02.804Z,67.80
2023-02-24T06:26:36.949Z,61.50
2023-02-24T06:29:13.329Z,60.20
2023-02-24T06:31:48.870Z,58.40
2023-02-24T06:34:21.613Z,58.40
2023-02-24T06:36:53.990Z,57.80
2023-02-24T06:39:26.032Z,81.40
2023-02-24T06:42:03.996Z,78.10
2023-02-24T06:44:38.427Z,71.60
2023-02-24T06:47:13.197Z,50.20
2023-02-24T06:49:45.192Z,55.00
2023-02-24T06:52:19.396Z,59.40
2023-02-24T06:54:52.609Z,59.20
2023-02-24T06:57:25.083Z,52.50
2023-02-24T06:59:57.163Z,50.80
2023-02-24T07:02:39.796Z,55.00
2023-02-24T07:05:14.960Z,58.00
2023-02-24T07:07:47.751Z,75.20
2023-02-24T07:10:20.277Z,79.00
2023-02-24T07:12:54.864Z,49.80
2023-02-24T07:15:32.084Z,50.40
2023-02-24T07:18:14.998Z,51.30
2023-02-24T07:20:47.882Z,53.10
2023-02-24T07:23:21.228Z,49.70
2023-02-24T07:25:53.569Z,48.40
2023-02-24T07:28:26.467Z,44.10
2023-02-24T07:30:58.504Z,48.20
2023-02-24T07:33:34.451Z,46.70
2023-02-24T07:36:09.750Z,54.90
2023-02-24T07:38:42.693Z,56.60
2023-02-24T07:41:19.282Z,52.30
2023-02-24T07:43:53.079Z,53.20
2023-02-24T07:46:28.153Z,53.40
2023-02-24T07:49:01.340Z,51.60
2023-02-24T07:51:33.674Z,51.70
2023-02-24T07:54:08.882Z,51.70
2023-02-24T07:56:46.286Z,49.20
2023-02-24T07:59:22.170Z,50.90
2023-02-24T08:01:56.022Z,44.60
2023-02-24T08:04:30.593Z,40.00
2023-02-24T08:07:05.479Z,46.00
2023-02-24T08:10:03.899Z,51.10
2023-02-24T08:12:36.237Z,52.70
2023-02-24T08:15:17.727Z,57.70
2023-02-24T08:17:49.810Z,65.30
2023-02-24T08:20:23.218Z,58.20
2023-02-24T08:22:56.854Z,140.50
2023-02-24T08:25:36.756Z,86.80
2023-02-24T08:28:11.902Z,44.70
2023-02-24T08:30:46.572Z,36.90
2023-02-24T08:33:23.203Z,35.40
2023-02-24T08:36:01.809Z,32.90
2023-02-24T08:38:45.034Z,33.10
2023-02-24T08:41:28.057Z,34.30
2023-02-24T08:44:03.152Z,32.10
2023-02-24T08:46:38.143Z,36.20
2023-02-24T08:49:11.046Z,34.40
2023-02-24T08:51:44.114Z,33.50
2023-02-24T08:54:17.822Z,32.60
2023-02-24T08:56:56.241Z,35.00
2023-02-24T08:59:49.396Z,35.30
2023-02-24T09:02:27.510Z,61.40
2023-02-24T09:05:03.600Z,95.30
2023-02-24T09:07:43.416Z,52.20
2023-02-24T09:10:19.406Z,43.40
2023-02-24T09:12:53.997Z,43.90
2023-02-24T09:15:41.437Z,47.30
2023-02-24T09:18:14.697Z,37.60
2023-02-24T09:21:16.297Z,43.70
2023-02-24T09:23:48.496Z,38.20
2023-02-24T09:26:20.923Z,37.90
2023-02-24T09:28:56.919Z,41.20
2023-02-24T09:31:41.088Z,38.40
2023-02-24T09:34:18.945Z,40.20
2023-02-24T09:37:03.367Z,41.60
2023-02-24T09:39:52.927Z,42.10
2023-02-24T09:42:46.373Z,41.60
2023-02-24T09:45:33.751Z,44.00
2023-02-24T09:48:21.544Z,37.40
2023-02-24T09:51:05.315Z,36.50
2023-02-24T22:02:32.838Z,30.00
2023-02-24T22:05:26.741Z,35.30
2023-02-24T22:08:15.897Z,35.60
2023-02-24T22:11:05.255Z,34.30
2023-02-24T22:13:54.426Z,30.60
2023-02-24T22:16:45.669Z,33.50
2023-02-24T22:19:35.569Z,37.90
2023-02-24T22:22:24.627Z,38.60
2023-02-24T22:25:14.670Z,46.10
2023-02-24T22:30:56.962Z,39.40
2023-02-24T22:33:45.925Z,35.60
2023-02-24T22:36:37.935Z,40.70
2023-02-24T22:39:27.014Z,34.10
2023-02-24T22:42:17.290Z,28.70
2023-02-24T22:45:09.456Z,31.50
2023-02-24T22:47:59.903Z,31.50
2023-02-24T22:50:48.750Z,31.40
2023-02-24T22:53:41.285Z,30.10
2023-02-24T22:56:35.507Z,28.20
2023-02-24T22:59:24.501Z,28.20
2023-02-24T23:02:14.523Z,29.90
2023-02-24T23:05:03.887Z,32.20
2023-02-24T23:07:56.040Z,36.10
2023-02-24T23:10:45.003Z,32.30
2023-02-24T23:16:27.774Z,26.80
2023-02-24T23:19:20.372Z,32.40
2023-02-24T23:22:09.584Z,32.80
2023-02-24T23:24:58.570Z,28.10
2023-02-24T23:27:48.527Z,31.20
2023-02-24T23:30:44.056Z,30.10
2023-02-24T23:33:34.458Z,33.10
2023-02-24T23:36:27.268Z,29.10
2023-02-24T23:39:20.208Z,26.90
2023-02-24T23:42:09.579Z,29.50
2023-02-24T23:44:58.780Z,26.20
2023-02-24T23:47:48.067Z,28.60
2023-02-24T23:50:38.306Z,23.90
2023-02-24T23:53:27.261Z,27.70
2023-02-24T23:56:18.958Z,26.30
2023-02-24T23:59:07.093Z,24.30
